HAZ2622 ZUCK-ZSHC
Flight info
| Callsign | HAZ2622 |
|---|---|
| Flight time | 1h 45m |
| Altitude | 29100 |
| Route | OLNER2X OLNER B213 WHA R343 UPLEL W95 SAPIN A470 IGRAT IGRAT91 |
| Aircraft | A320/M-SDE3FGHIRWY/LB1 |
Departure
| Time | 2026-05-04 07:49 |
|---|---|
| Airport | Chongqing Jiangbei International Airport (ZUCK) |
Arrival
| Time | 2026-05-04 09:34 |
|---|---|
| Airport | Hangzhou Xiaoshan International Airport (ZSHC) |
| Time | Latitude | Longitude | Altitude | Speed | Heading |
|---|---|---|---|---|---|
| 2026-05-04 07:12 | 29.71455 | 106.65603 | 1348 ft | 0 kts | 302° |
| 2026-05-04 07:39 | 29.71454 | 106.65604 | 1342 ft | 2 kts | 302° |
| 2026-05-04 07:39 | 29.71446 | 106.65620 | 1347 ft | 2 kts | 302° |
| 2026-05-04 07:39 | 29.71437 | 106.65636 | 1346 ft | 2 kts | 301° |
| 2026-05-04 07:39 | 29.71429 | 106.65652 | 1343 ft | 2 kts | 301° |
| 2026-05-04 07:40 | 29.71420 | 106.65668 | 1342 ft | 2 kts | 302° |
| 2026-05-04 07:40 | 29.71412 | 106.65684 | 1342 ft | 2 kts | 272° |
| 2026-05-04 07:40 | 29.71412 | 106.65703 | 1342 ft | 2 kts | 256° |
| 2026-05-04 07:40 | 29.71420 | 106.65719 | 1344 ft | 2 kts | 213° |
| 2026-05-04 07:41 | 29.71434 | 106.65728 | 1343 ft | 2 kts | 203° |
| 2026-05-04 07:41 | 29.71444 | 106.65733 | 1343 ft | 1 kts | 202° |
| 2026-05-04 07:43 | 29.71430 | 106.65726 | 1342 ft | 6 kts | 205° |
| 2026-05-04 07:44 | 29.71395 | 106.65728 | 1343 ft | 5 kts | 146° |
| 2026-05-04 07:44 | 29.71373 | 106.65785 | 1345 ft | 10 kts | 93° |
| 2026-05-04 07:44 | 29.71421 | 106.65831 | 1342 ft | 9 kts | 18° |
| 2026-05-04 07:44 | 29.71478 | 106.65851 | 1343 ft | 9 kts | 17° |
| 2026-05-04 07:45 | 29.71515 | 106.65888 | 1340 ft | 7 kts | 85° |
| 2026-05-04 07:45 | 29.71495 | 106.65963 | 1337 ft | 12 kts | 107° |
| 2026-05-04 07:45 | 29.71473 | 106.66051 | 1339 ft | 11 kts | 105° |
| 2026-05-04 07:45 | 29.71459 | 106.66112 | 1342 ft | 6 kts | 104° |
| 2026-05-04 07:46 | 29.71457 | 106.66148 | 1338 ft | 4 kts | 66° |
| 2026-05-04 07:46 | 29.71476 | 106.66156 | 1338 ft | 3 kts | 15° |
| 2026-05-04 07:46 | 29.71478 | 106.66157 | 1337 ft | 0 kts | 16° |
| 2026-05-04 07:47 | 29.71479 | 106.66157 | 1337 ft | 1 kts | 16° |
| 2026-05-04 07:47 | 29.71605 | 106.66201 | 1336 ft | 57 kts | 17° |
| 2026-05-04 07:47 | 29.72214 | 106.66411 | 1330 ft | 123 kts | 17° |
| 2026-05-04 07:49 | 29.80682 | 106.70803 | 4342 ft | 256 kts | 34° |
| 2026-05-04 07:49 | 29.82239 | 106.71969 | 4908 ft | 276 kts | 33° |
| 2026-05-04 07:49 | 29.83877 | 106.73182 | 5748 ft | 282 kts | 33° |
| 2026-05-04 07:50 | 29.85388 | 106.74621 | 6659 ft | 283 kts | 50° |
| 2026-05-04 07:50 | 29.86479 | 106.76502 | 7568 ft | 285 kts | 65° |
| 2026-05-04 07:50 | 29.87047 | 106.78660 | 8440 ft | 288 kts | 83° |
| 2026-05-04 07:50 | 29.87149 | 106.80983 | 9280 ft | 293 kts | 88° |
| 2026-05-04 07:51 | 29.87262 | 106.83349 | 10128 ft | 298 kts | 85° |
| 2026-05-04 07:51 | 29.87424 | 106.85802 | 10540 ft | 318 kts | 85° |
| 2026-05-04 07:51 | 29.87616 | 106.88437 | 10794 ft | 342 kts | 84° |
| 2026-05-04 07:51 | 29.87819 | 106.91264 | 11016 ft | 366 kts | 84° |
| 2026-05-04 07:52 | 29.88020 | 106.94243 | 11486 ft | 378 kts | 85° |
| 2026-05-04 07:52 | 29.88216 | 106.97285 | 12185 ft | 383 kts | 84° |
| 2026-05-04 07:52 | 29.88408 | 107.00365 | 12901 ft | 388 kts | 84° |
| 2026-05-04 07:52 | 29.88596 | 107.03483 | 13602 ft | 392 kts | 84° |
| 2026-05-04 07:53 | 29.88781 | 107.06637 | 14239 ft | 397 kts | 85° |
| 2026-05-04 07:54 | 29.90129 | 107.29535 | 18341 ft | 423 kts | 85° |
| 2026-05-04 07:55 | 29.90329 | 107.32933 | 18814 ft | 427 kts | 85° |
| 2026-05-04 07:55 | 29.90532 | 107.36363 | 19273 ft | 431 kts | 85° |
| 2026-05-04 07:55 | 29.90735 | 107.39835 | 19717 ft | 436 kts | 86° |
| 2026-05-04 07:55 | 29.90938 | 107.43336 | 20146 ft | 441 kts | 86° |
| 2026-05-04 07:56 | 29.91141 | 107.46883 | 20579 ft | 445 kts | 86° |
| 2026-05-04 07:56 | 29.91345 | 107.50458 | 21014 ft | 450 kts | 86° |
| 2026-05-04 07:56 | 29.91548 | 107.54072 | 21439 ft | 454 kts | 86° |
| 2026-05-04 07:56 | 29.91751 | 107.57714 | 21855 ft | 458 kts | 86° |
| 2026-05-04 07:57 | 29.91958 | 107.61395 | 22268 ft | 462 kts | 86° |
| 2026-05-04 07:57 | 29.92170 | 107.65108 | 22676 ft | 466 kts | 86° |
| 2026-05-04 07:57 | 29.92381 | 107.68850 | 23066 ft | 470 kts | 86° |
| 2026-05-04 07:57 | 29.92589 | 107.72571 | 23440 ft | 473 kts | 86° |
| 2026-05-04 07:58 | 29.92799 | 107.76375 | 23748 ft | 478 kts | 86° |
| 2026-05-04 07:58 | 29.93030 | 107.80216 | 24029 ft | 483 kts | 83° |
| 2026-05-04 07:58 | 29.93611 | 107.84032 | 24336 ft | 485 kts | 74° |
| 2026-05-04 07:58 | 29.94542 | 107.87785 | 24647 ft | 488 kts | 72° |
| 2026-05-04 07:59 | 29.95501 | 107.91557 | 24971 ft | 492 kts | 72° |
| 2026-05-04 07:59 | 29.96465 | 107.95352 | 25275 ft | 495 kts | 72° |
| 2026-05-04 07:59 | 29.97432 | 107.99176 | 25576 ft | 499 kts | 72° |
| 2026-05-04 07:59 | 29.98406 | 108.03030 | 25863 ft | 502 kts | 72° |
| 2026-05-04 08:00 | 29.99384 | 108.06908 | 26159 ft | 505 kts | 72° |
| 2026-05-04 08:00 | 30.00367 | 108.10805 | 26446 ft | 508 kts | 72° |
| 2026-05-04 08:00 | 30.01355 | 108.14730 | 26697 ft | 511 kts | 72° |
| 2026-05-04 08:02 | 30.08344 | 108.42778 | 28819 ft | 526 kts | 71° |
| 2026-05-04 08:02 | 30.09353 | 108.46846 | 29093 ft | 528 kts | 72° |
| 2026-05-04 08:02 | 30.10366 | 108.50921 | 29161 ft | 528 kts | 72° |
| 2026-05-04 08:03 | 30.12412 | 108.59052 | 29162 ft | 526 kts | 70° |
| 2026-05-04 08:03 | 30.14698 | 108.67020 | 29156 ft | 526 kts | 68° |
| 2026-05-04 08:04 | 30.17132 | 108.74963 | 29149 ft | 521 kts | 68° |
| 2026-05-04 08:04 | 30.19495 | 108.82871 | 29156 ft | 521 kts | 69° |
| 2026-05-04 08:05 | 30.21781 | 108.90810 | 29148 ft | 521 kts | 70° |
| 2026-05-04 08:05 | 30.23940 | 108.98806 | 29137 ft | 521 kts | 71° |
| 2026-05-04 08:06 | 30.25876 | 109.06874 | 29128 ft | 521 kts | 73° |
| 2026-05-04 08:06 | 30.27773 | 109.14955 | 29116 ft | 520 kts | 73° |
| 2026-05-04 08:08 | 30.35641 | 109.47145 | 29145 ft | 519 kts | 73° |
| 2026-05-04 08:11 | 30.42310 | 109.83873 | 29099 ft | 519 kts | 79° |
| 2026-05-04 08:11 | 30.44132 | 109.96259 | 29106 ft | 521 kts | 80° |
| 2026-05-04 08:12 | 30.45331 | 110.04537 | 29101 ft | 521 kts | 80° |
| 2026-05-04 08:12 | 30.46521 | 110.12820 | 29111 ft | 521 kts | 80° |
| 2026-05-04 08:13 | 30.47715 | 110.21113 | 29142 ft | 521 kts | 80° |
| 2026-05-04 08:13 | 30.48899 | 110.29383 | 29142 ft | 519 kts | 80° |
| 2026-05-04 08:14 | 30.50076 | 110.37641 | 29141 ft | 519 kts | 80° |
| 2026-05-04 08:16 | 30.54714 | 110.70598 | 29106 ft | 518 kts | 81° |
| 2026-05-04 08:16 | 30.55866 | 110.78852 | 29104 ft | 518 kts | 81° |
| 2026-05-04 08:17 | 30.56999 | 110.87063 | 29085 ft | 519 kts | 81° |
| 2026-05-04 08:17 | 30.58128 | 110.95322 | 29086 ft | 519 kts | 81° |
| 2026-05-04 08:19 | 30.62641 | 111.28425 | 29076 ft | 519 kts | 81° |
| 2026-05-04 08:20 | 30.63744 | 111.36646 | 29076 ft | 519 kts | 82° |
| 2026-05-04 08:20 | 30.64850 | 111.44936 | 29080 ft | 520 kts | 82° |
| 2026-05-04 08:21 | 30.65516 | 111.53275 | 29082 ft | 519 kts | 88° |
| 2026-05-04 08:21 | 30.65944 | 111.61646 | 29082 ft | 519 kts | 88° |
| 2026-05-04 08:22 | 30.66366 | 111.70019 | 29079 ft | 519 kts | 88° |
| 2026-05-04 08:24 | 30.68113 | 112.03404 | 29113 ft | 519 kts | 86° |
| 2026-05-04 08:24 | 30.68719 | 112.11760 | 29094 ft | 520 kts | 86° |
| 2026-05-04 08:25 | 30.69336 | 112.20132 | 29078 ft | 521 kts | 86° |
| 2026-05-04 08:25 | 30.69908 | 112.28466 | 29079 ft | 522 kts | 87° |
| 2026-05-04 08:27 | 30.72100 | 112.62192 | 29093 ft | 524 kts | 87° |
| 2026-05-04 08:28 | 30.72641 | 112.70639 | 29096 ft | 524 kts | 87° |
| 2026-05-04 08:28 | 30.73178 | 112.79086 | 29086 ft | 524 kts | 87° |
| 2026-05-04 08:29 | 30.73702 | 112.87472 | 29104 ft | 523 kts | 87° |
| 2026-05-04 08:31 | 30.75641 | 113.21211 | 29101 ft | 525 kts | 90° |
| 2026-05-04 08:33 | 30.76367 | 113.55124 | 29110 ft | 526 kts | 90° |
| 2026-05-04 08:35 | 30.77133 | 113.89098 | 29117 ft | 526 kts | 90° |
| 2026-05-04 08:35 | 30.77306 | 113.97596 | 29115 ft | 526 kts | 90° |
| 2026-05-04 08:37 | 30.79148 | 114.22963 | 29135 ft | 528 kts | 72° |
| 2026-05-04 08:37 | 30.80413 | 114.26975 | 29109 ft | 529 kts | 68° |
| 2026-05-04 08:38 | 30.83044 | 114.34976 | 29101 ft | 531 kts | 68° |
| 2026-05-04 08:38 | 30.85594 | 114.42978 | 29116 ft | 532 kts | 69° |
| 2026-05-04 08:40 | 30.96035 | 114.75280 | 29139 ft | 534 kts | 68° |
| 2026-05-04 08:41 | 30.98652 | 114.83385 | 29130 ft | 535 kts | 68° |
| 2026-05-04 08:41 | 31.01246 | 114.91457 | 29122 ft | 536 kts | 68° |
| 2026-05-04 08:42 | 31.03849 | 114.99602 | 29119 ft | 536 kts | 68° |
| 2026-05-04 08:42 | 31.06454 | 115.07747 | 29117 ft | 536 kts | 68° |
| 2026-05-04 08:43 | 31.09051 | 115.15903 | 29140 ft | 536 kts | 68° |
| 2026-05-04 08:43 | 31.11645 | 115.24069 | 29159 ft | 537 kts | 68° |
| 2026-05-04 08:44 | 31.14221 | 115.32178 | 29165 ft | 536 kts | 68° |
| 2026-05-04 08:46 | 31.24788 | 115.64840 | 29143 ft | 539 kts | 68° |
| 2026-05-04 08:46 | 31.27412 | 115.73041 | 29146 ft | 539 kts | 68° |
| 2026-05-04 08:47 | 31.30014 | 115.81187 | 29128 ft | 538 kts | 68° |
| 2026-05-04 08:47 | 31.32633 | 115.89397 | 29123 ft | 539 kts | 68° |
| 2026-05-04 08:48 | 31.35295 | 115.97605 | 29129 ft | 540 kts | 67° |
| 2026-05-04 08:48 | 31.37986 | 116.05797 | 29125 ft | 539 kts | 67° |
| 2026-05-04 08:49 | 31.40660 | 116.13997 | 29150 ft | 539 kts | 67° |
| 2026-05-04 08:50 | 31.49919 | 116.42679 | 29096 ft | 540 kts | 67° |
| 2026-05-04 08:51 | 31.52122 | 116.49532 | 29097 ft | 541 kts | 67° |
| 2026-05-04 08:51 | 31.55217 | 116.59189 | 29130 ft | 541 kts | 67° |
| 2026-05-04 08:52 | 31.57832 | 116.67383 | 29160 ft | 539 kts | 67° |
| 2026-05-04 08:52 | 31.60451 | 116.75609 | 29155 ft | 537 kts | 67° |
| 2026-05-04 08:54 | 31.70417 | 117.07132 | 29147 ft | 538 kts | 68° |
| 2026-05-04 08:55 | 31.72928 | 117.15269 | 29130 ft | 526 kts | 68° |
| 2026-05-04 08:55 | 31.75423 | 117.23383 | 29133 ft | 532 kts | 68° |
| 2026-05-04 08:57 | 31.75877 | 117.53664 | 29112 ft | 537 kts | 96° |
| 2026-05-04 09:01 | 31.71478 | 118.14889 | 29146 ft | 533 kts | 96° |
| 2026-05-04 09:01 | 31.70868 | 118.23572 | 29142 ft | 534 kts | 96° |
| 2026-05-04 09:02 | 31.70284 | 118.32260 | 29144 ft | 534 kts | 96° |
| 2026-05-04 09:02 | 31.69681 | 118.40897 | 29121 ft | 535 kts | 96° |
| 2026-05-04 09:03 | 31.69049 | 118.49624 | 29114 ft | 537 kts | 96° |
| 2026-05-04 09:03 | 31.68414 | 118.58383 | 29123 ft | 539 kts | 96° |
| 2026-05-04 09:04 | 31.67778 | 118.67160 | 29115 ft | 540 kts | 97° |
| 2026-05-04 09:04 | 31.67134 | 118.75957 | 29129 ft | 542 kts | 97° |
| 2026-05-04 09:05 | 31.66477 | 118.84791 | 29129 ft | 544 kts | 97° |
| 2026-05-04 09:05 | 31.64880 | 118.93383 | 29132 ft | 536 kts | 116° |
| 2026-05-04 09:06 | 31.61338 | 119.00904 | 29127 ft | 520 kts | 135° |
| 2026-05-04 09:07 | 31.43455 | 119.18178 | 27557 ft | 448 kts | 152° |
| 2026-05-04 09:08 | 31.40956 | 119.20318 | 27174 ft | 443 kts | 152° |
| 2026-05-04 09:08 | 31.38471 | 119.22460 | 26930 ft | 444 kts | 152° |
| 2026-05-04 09:08 | 31.35990 | 119.24609 | 26679 ft | 443 kts | 151° |
| 2026-05-04 09:08 | 31.33515 | 119.26762 | 26422 ft | 442 kts | 151° |
| 2026-05-04 09:09 | 31.31056 | 119.28909 | 26174 ft | 441 kts | 151° |
| 2026-05-04 09:09 | 31.28632 | 119.31024 | 25935 ft | 440 kts | 150° |
| 2026-05-04 09:09 | 31.26177 | 119.33165 | 25694 ft | 441 kts | 150° |
| 2026-05-04 09:09 | 31.23717 | 119.35310 | 25458 ft | 441 kts | 150° |
| 2026-05-04 09:10 | 31.21263 | 119.37446 | 25223 ft | 439 kts | 150° |
| 2026-05-04 09:10 | 31.18815 | 119.39573 | 24990 ft | 438 kts | 150° |
| 2026-05-04 09:10 | 31.16377 | 119.41697 | 24754 ft | 437 kts | 150° |
| 2026-05-04 09:10 | 31.13947 | 119.43822 | 24524 ft | 436 kts | 150° |
| 2026-05-04 09:11 | 31.11529 | 119.45938 | 24278 ft | 434 kts | 150° |
| 2026-05-04 09:11 | 31.09102 | 119.48055 | 24046 ft | 436 kts | 150° |
| 2026-05-04 09:11 | 31.06674 | 119.50174 | 23738 ft | 437 kts | 150° |
| 2026-05-04 09:11 | 31.04212 | 119.52318 | 22617 ft | 446 kts | 149° |
| 2026-05-04 09:12 | 31.01752 | 119.54457 | 21804 ft | 447 kts | 149° |
| 2026-05-04 09:12 | 30.99259 | 119.56629 | 20983 ft | 448 kts | 148° |
| 2026-05-04 09:14 | 30.82955 | 119.70809 | 15699 ft | 405 kts | 144° |
| 2026-05-04 09:14 | 30.80694 | 119.72759 | 15007 ft | 401 kts | 144° |
| 2026-05-04 09:14 | 30.78498 | 119.74655 | 14375 ft | 386 kts | 144° |
| 2026-05-04 09:14 | 30.76366 | 119.76500 | 13741 ft | 379 kts | 143° |
| 2026-05-04 09:15 | 30.74296 | 119.78392 | 13122 ft | 379 kts | 137° |
| 2026-05-04 09:15 | 30.72547 | 119.80612 | 12526 ft | 377 kts | 126° |
| 2026-05-04 09:15 | 30.71162 | 119.83179 | 11912 ft | 375 kts | 115° |
| 2026-05-04 09:15 | 30.70202 | 119.85976 | 11401 ft | 369 kts | 105° |
| 2026-05-04 09:17 | 30.60127 | 120.04789 | 10209 ft | 351 kts | 144° |
| 2026-05-04 09:18 | 30.58149 | 120.06442 | 10054 ft | 350 kts | 144° |
| 2026-05-04 09:18 | 30.56175 | 120.08096 | 9720 ft | 350 kts | 144° |
| 2026-05-04 09:18 | 30.54249 | 120.09711 | 9228 ft | 344 kts | 144° |
| 2026-05-04 09:18 | 30.52314 | 120.11331 | 8779 ft | 342 kts | 144° |
| 2026-05-04 09:19 | 30.50390 | 120.12938 | 8342 ft | 340 kts | 144° |
| 2026-05-04 09:19 | 30.48458 | 120.14506 | 7907 ft | 340 kts | 149° |
| 2026-05-04 09:19 | 30.46336 | 120.15657 | 7706 ft | 335 kts | 157° |
| 2026-05-04 09:19 | 30.44189 | 120.16724 | 7632 ft | 336 kts | 156° |
| 2026-05-04 09:20 | 30.42048 | 120.17802 | 7562 ft | 335 kts | 156° |
| 2026-05-04 09:20 | 30.39912 | 120.18879 | 7489 ft | 335 kts | 156° |
| 2026-05-04 09:20 | 30.37774 | 120.19953 | 7416 ft | 334 kts | 156° |
| 2026-05-04 09:20 | 30.35653 | 120.21018 | 7332 ft | 327 kts | 156° |
| 2026-05-04 09:21 | 30.33620 | 120.22040 | 7247 ft | 310 kts | 156° |
| 2026-05-04 09:21 | 30.31732 | 120.23017 | 7158 ft | 289 kts | 154° |
| 2026-05-04 09:21 | 30.29986 | 120.24015 | 7067 ft | 264 kts | 152° |
| 2026-05-04 09:21 | 30.28520 | 120.25070 | 6998 ft | 242 kts | 135° |
| 2026-05-04 09:22 | 30.27553 | 120.26542 | 6923 ft | 221 kts | 113° |
| 2026-05-04 09:22 | 30.27128 | 120.28219 | 6866 ft | 221 kts | 92° |
| 2026-05-04 09:22 | 30.27234 | 120.29988 | 6786 ft | 221 kts | 72° |
| 2026-05-04 09:22 | 30.27829 | 120.31609 | 6705 ft | 219 kts | 60° |
| 2026-05-04 09:23 | 30.28527 | 120.33171 | 6630 ft | 219 kts | 60° |
| 2026-05-04 09:23 | 30.29220 | 120.34737 | 6551 ft | 218 kts | 60° |
| 2026-05-04 09:23 | 30.29909 | 120.36300 | 6469 ft | 218 kts | 60° |
| 2026-05-04 09:23 | 30.30600 | 120.37861 | 6391 ft | 218 kts | 60° |
| 2026-05-04 09:25 | 30.35409 | 120.48723 | 5840 ft | 217 kts | 61° |
| 2026-05-04 09:25 | 30.36094 | 120.50274 | 5753 ft | 216 kts | 61° |
| 2026-05-04 09:26 | 30.36779 | 120.51825 | 5660 ft | 217 kts | 60° |
| 2026-05-04 09:26 | 30.37464 | 120.53378 | 5577 ft | 218 kts | 61° |
| 2026-05-04 09:26 | 30.38154 | 120.54940 | 5484 ft | 217 kts | 61° |
| 2026-05-04 09:26 | 30.38841 | 120.56500 | 5395 ft | 217 kts | 61° |
| 2026-05-04 09:27 | 30.39528 | 120.58060 | 5310 ft | 218 kts | 60° |
| 2026-05-04 09:27 | 30.40216 | 120.59622 | 5223 ft | 217 kts | 61° |
| 2026-05-04 09:27 | 30.40903 | 120.61180 | 5140 ft | 218 kts | 60° |
| 2026-05-04 09:27 | 30.41577 | 120.62752 | 5042 ft | 218 kts | 68° |
| 2026-05-04 09:28 | 30.41732 | 120.64478 | 4951 ft | 219 kts | 102° |
| 2026-05-04 09:28 | 30.41041 | 120.66003 | 4759 ft | 221 kts | 135° |
| 2026-05-04 09:28 | 30.39788 | 120.67017 | 4506 ft | 219 kts | 158° |
| 2026-05-04 09:28 | 30.38331 | 120.67419 | 4446 ft | 215 kts | 178° |
| 2026-05-04 09:29 | 30.36865 | 120.67212 | 4343 ft | 213 kts | 198° |
| 2026-05-04 09:29 | 30.35561 | 120.66431 | 4175 ft | 211 kts | 218° |
| 2026-05-04 09:29 | 30.34588 | 120.65177 | 3940 ft | 210 kts | 238° |
| 2026-05-04 09:29 | 30.33910 | 120.63674 | 3687 ft | 211 kts | 241° |
| 2026-05-04 09:30 | 30.33244 | 120.62154 | 3403 ft | 211 kts | 242° |
| 2026-05-04 09:30 | 30.32578 | 120.60641 | 3129 ft | 211 kts | 242° |
| 2026-05-04 09:30 | 30.31909 | 120.59124 | 2847 ft | 212 kts | 242° |
| 2026-05-04 09:30 | 30.31251 | 120.57633 | 2568 ft | 204 kts | 241° |
| 2026-05-04 09:31 | 30.30619 | 120.56199 | 2307 ft | 195 kts | 242° |
| 2026-05-04 09:31 | 30.30033 | 120.54872 | 2073 ft | 175 kts | 241° |
| 2026-05-04 09:31 | 30.29504 | 120.53673 | 1848 ft | 161 kts | 241° |
| 2026-05-04 09:31 | 30.29026 | 120.52592 | 1648 ft | 144 kts | 240° |
| 2026-05-04 09:32 | 30.28583 | 120.51591 | 1447 ft | 137 kts | 241° |
| 2026-05-04 09:32 | 30.28149 | 120.50611 | 1268 ft | 136 kts | 240° |
| 2026-05-04 09:34 | 30.25186 | 120.43921 | 64 ft | 132 kts | 242° |
| 2026-05-04 09:34 | 30.24802 | 120.43046 | 32 ft | 102 kts | 243° |
| 2026-05-04 09:34 | 30.24557 | 120.42493 | 29 ft | 53 kts | 243° |
| 2026-05-04 09:34 | 30.24451 | 120.42302 | 31 ft | 21 kts | 225° |
| 2026-05-04 09:35 | 30.24359 | 120.42211 | 31 ft | 16 kts | 217° |
| 2026-05-04 09:35 | 30.24273 | 120.42159 | 32 ft | 13 kts | 179° |
| 2026-05-04 09:35 | 30.24248 | 120.42232 | 32 ft | 11 kts | 64° |
| 2026-05-04 09:35 | 30.24283 | 120.42310 | 32 ft | 10 kts | 63° |
| 2026-05-04 09:37 | 30.24400 | 120.42574 | 32 ft | 10 kts | 63° |
| 2026-05-04 09:37 | 30.24430 | 120.42641 | 31 ft | 9 kts | 63° |
| 2026-05-04 09:38 | 30.24440 | 120.42663 | 32 ft | 0 kts | 63° |
| 2026-05-04 09:40 | 30.24440 | 120.42665 | 32 ft | 2 kts | 63° |
| 2026-05-04 09:40 | 30.24456 | 120.42724 | 32 ft | 9 kts | 97° |
| 2026-05-04 09:40 | 30.24413 | 120.42765 | 32 ft | 8 kts | 150° |
| 2026-05-04 09:41 | 30.24366 | 120.42792 | 32 ft | 7 kts | 157° |
| 2026-05-04 09:42 | 30.24160 | 120.42959 | 32 ft | 4 kts | 64° |
| 2026-05-04 09:43 | 30.24171 | 120.42984 | 32 ft | 3 kts | 64° |
| 2026-05-04 09:43 | 30.24172 | 120.42986 | 32 ft | 0 kts | 64° |